This is the latest recevied weather packets stored in our database for station/object EB2BAG-11. If no packets are shown the sender has not sent any weather packets the latest 10 day(s).
| Time | Temp. | Humidity | Pressure | Rain* | Wind** | Luminosity | Snow |
|---|---|---|---|---|---|---|---|
| 1778110578 | 10.56° C | 85% | 1016.4 hPa | - | - | - | - |
| 1778109378 | 11.11° C | 84% | 1016.5 hPa | - | - | - | - |
| 1778108178 | 11.11° C | 83% | 1016.5 hPa | - | - | - | - |
| 1778106978 | 10.56° C | 85% | 1016.6 hPa | - | - | - | - |
| 1778105778 | 11.11° C | 85% | 1016.7 hPa | - | - | - | - |
| 1778104578 | 11.11° C | 84% | 1016.7 hPa | - | - | - | - |
| 1778103378 | 11.11° C | 86% | 1016.7 hPa | - | - | - | - |
| 1778102178 | 11.67° C | 84% | 1016.7 hPa | - | - | - | - |
| 1778100978 | 12.22° C | 84% | 1016.7 hPa | - | - | - | - |
| 1778099777 | 11.67° C | 85% | 1016.7 hPa | - | - | - | - |
| 1778098577 | 12.22° C | 85% | 1016.6 hPa | - | - | - | - |
| 1778097377 | 12.78° C | 85% | 1016.5 hPa | - | - | - | - |
| 1778096177 | 13.33° C | 83% | 1016.2 hPa | - | - | - | - |
| 1778094977 | 13.33° C | 83% | 1016 hPa | - | - | - | - |
| 1778093777 | 13.89° C | 82% | 1015.8 hPa | - | - | - | - |
| 1778092577 | 14.44° C | 80% | 1015.7 hPa | - | - | - | - |
| 1778091377 | 14.44° C | 78% | 1015.7 hPa | - | - | - | - |
| 1778090177 | 16.11° C | 73% | 1015.7 hPa | - | - | - | - |
| 1778088977 | 16.11° C | 69% | 1015.6 hPa | - | - | - | - |
| 1778087777 | 16.11° C | 72% | 1015.6 hPa | - | - | - | - |
| 1778086577 | 16.11° C | 72% | 1015.7 hPa | - | - | - | - |
| 1778085377 | 16.11° C | 71% | 1015.7 hPa | - | - | - | - |
| 1778084176 | 16.67° C | 69% | 1015.7 hPa | - | - | - | - |
| 1778082976 | 16.11° C | 67% | 1015.7 hPa | - | - | - | - |
| 1778081775 | 16.11° C | 70% | 1015.7 hPa | - | - | - | - |
* Rain since midnight (hover to see other rain measurements)
** Current wind speed in m/s (hover to see current wind gust speed)